Terminal Aerodrome Forecast
Issued by NWS Green Bay, WI

Home | Current Version | Previous Version | Text Only | Print | Product List | Glossary Off
Versions: 1 2 3 4 5 6 7 8 9 10 11 12 13 14 15 16 17 18 19 20 21 22 23 24 25

000
FTUS43 KGRB 102004 AAA
TAFGRB
TAF AMD
KGRB 102004Z 1020/1118 32009KT P6SM BKN025 OVC035
     FM110000 34005KT P6SM SCT027 OVC050
     FM111000 VRB03KT P6SM -SN OVC040
     FM111100 17003KT 4SM -SN OVC030
     FM111200 17004KT 2SM -SN OVC019
     FM111400 18005KT 1 1/2SM -SN OVC013=

USA.gov is the U.S. government's official web portal to all federal, state and local government web resources and services.